Time;durP1;ratioP1;P1;durP2;ratioP2;P2;SDS_P1;SDS_P2;PMS_P1;PMS_P2;Temp;Humidity;BMP_temperature;BMP_pressure;BME280_temperature;BME280_humidity;BME280_pressure;Samples;Min_cycle;Max_cycle;Signal;HPM_P1;HPM_P2
2024/01/16 00:02:20;;;;;;;4.92;2.37;;;;;;;-2.52;93.45;98112.68;1684806;84;25460;-44
2024/01/16 00:04:46;;;;;;;4.05;2.05;;;;;;;-2.54;93.20;98125.92;1684713;85;25619;-45
2024/01/16 00:07:14;;;;;;;5.28;1.80;;;;;;;-2.55;93.29;98126.45;1684044;85;25595;-45
2024/01/16 00:09:41;;;;;;;4.80;2.22;;;;;;;-2.56;93.16;98125.41;1684138;85;27330;-45
2024/01/16 00:12:09;;;;;;;4.60;2.37;;;;;;;-2.54;93.15;98137.28;1684097;85;25741;-46
2024/01/16 00:14:38;;;;;;;3.42;2.45;;;;;;;-2.53;93.11;98150.02;1684041;84;25856;-46
2024/01/16 00:17:05;;;;;;;4.17;2.70;;;;;;;-2.54;93.21;98148.42;1684189;85;25785;-45
2024/01/16 00:19:31;;;;;;;7.20;2.80;;;;;;;-2.53;93.37;98155.30;1684229;84;25736;-47
2024/01/16 00:21:58;;;;;;;4.12;2.62;;;;;;;-2.53;93.30;98156.09;1684664;85;27316;-44
2024/01/16 00:24:27;;;;;;;4.42;2.80;;;;;;;-2.54;92.93;98145.23;1684694;85;25373;-46
2024/01/16 00:26:53;;;;;;;;;;;;;;;-2.54;93.09;98169.59;1687202;85;25703;-46
2024/01/16 00:29:20;;;;;;;5.62;3.05;;;;;;;-2.52;93.35;98176.21;1684728;83;26262;-47
2024/01/16 00:31:48;;;;;;;4.80;3.12;;;;;;;-2.53;93.35;98176.48;1684668;85;25468;-46
2024/01/16 00:34:16;;;;;;;5.20;2.90;;;;;;;-2.51;93.38;98185.72;1684771;84;27325;-46
2024/01/16 00:36:42;;;;;;;3.25;2.30;;;;;;;-2.52;93.41;98180.19;1684862;84;25656;-46
2024/01/16 00:39:09;;;;;;;3.37;2.42;;;;;;;-2.51;93.28;98189.69;1684908;85;25556;-46
2024/01/16 00:41:36;;;;;;;6.00;2.37;;;;;;;-2.50;93.47;98196.58;1684892;85;25746;-46
2024/01/16 00:44:07;;;;;;;3.12;2.12;;;;;;;-2.48;93.53;98202.39;1684957;85;25556;-46
2024/01/16 00:46:34;;;;;;;5.30;2.33;;;;;;;-2.48;93.52;98200.28;1684976;85;27318;-47
2024/01/16 00:49:00;;;;;;;4.83;2.65;;;;;;;-2.48;93.43;98209.00;1684934;85;25629;-46
2024/01/16 00:51:26;;;;;;;5.10;2.47;;;;;;;-2.47;93.53;98213.25;1685049;85;25575;-46
2024/01/16 00:53:52;;;;;;;3.80;2.22;;;;;;;-2.47;93.33;98215.08;1684846;85;25618;-46
2024/01/16 00:56:19;;;;;;;5.12;3.00;;;;;;;-2.47;93.20;98217.22;1684886;85;25619;-46
2024/01/16 00:58:46;;;;;;;3.58;2.58;;;;;;;-2.48;93.16;98220.14;1684892;85;27323;-46
2024/01/16 01:01:12;;;;;;;4.22;2.15;;;;;;;-2.49;93.21;98221.97;1684840;85;25712;-46
2024/01/16 01:03:38;;;;;;;5.00;2.30;;;;;;;-2.50;93.11;98216.44;1684942;84;25630;-45
2024/01/16 01:06:06;;;;;;;4.12;2.52;;;;;;;-2.53;93.16;98220.95;1684920;84;25621;-45
2024/01/16 01:08:33;;;;;;;3.47;2.37;;;;;;;-2.54;92.87;98225.97;1667775;85;25695;-45
2024/01/16 01:11:00;;;;;;;3.98;2.52;;;;;;;-2.56;92.89;98225.45;1684844;85;29614;-46
2024/01/16 01:13:26;;;;;;;5.20;2.77;;;;;;;-2.56;92.86;98235.27;1684799;85;25634;-46
2024/01/16 01:15:53;;;;;;;3.98;2.77;;;;;;;-2.59;92.65;98226.54;1684953;85;25417;-45
2024/01/16 01:18:19;;;;;;;4.60;2.62;;;;;;;-2.60;92.53;98228.41;1684890;84;25677;-44
2024/01/16 01:20:50;;;;;;;3.52;2.70;;;;;;;-2.63;92.32;98233.70;1684879;85;25614;-45
2024/01/16 01:23:16;;;;;;;5.35;2.45;;;;;;;-2.63;92.30;98243.50;1684935;84;27346;-44
2024/01/16 01:25:42;;;;;;;5.22;2.15;;;;;;;-2.67;91.69;98233.99;1684814;85;25651;-44
2024/01/16 01:28:12;;;;;;;3.10;1.90;;;;;;;-2.72;90.67;98239.31;1684847;83;25384;-47
2024/01/16 01:30:38;;;;;;;2.90;2.00;;;;;;;-2.80;89.81;98253.09;1684866;85;25633;-47
2024/01/16 01:33:09;;;;;;;4.90;2.00;;;;;;;-2.86;89.65;98260.78;1684862;85;25552;-48
2024/01/16 01:35:36;;;;;;;2.72;1.80;;;;;;;-2.95;89.33;98251.30;1684984;84;27345;-46
2024/01/16 01:38:13;;;;;;;3.87;1.47;;;;;;;-3.02;89.06;98254.22;1684879;85;25441;-46
2024/01/16 01:40:40;;;;;;;2.33;1.50;;;;;;;-3.07;89.03;98269.33;1684912;85;25598;-46
2024/01/16 01:43:24;;;;;;;3.20;1.72;;;;;;;-3.14;88.86;98274.89;1684900;85;25667;-47
2024/01/16 01:46:10;;;;;;;3.42;2.45;;;;;;;-3.18;88.56;98279.15;1683367;84;25436;-43
2024/01/16 01:48:45;;;;;;;4.58;2.22;;;;;;;-3.23;88.06;98284.45;1684900;85;28026;-44
2024/01/16 01:51:17;;;;;;;6.00;2.72;;;;;;;-3.26;88.16;98298.98;1684748;85;25645;-48
2024/01/16 01:53:48;;;;;;;5.10;3.02;;;;;;;-3.30;88.64;98302.41;1684870;85;25555;-47
2024/01/16 01:56:20;;;;;;;3.95;2.22;;;;;;;-3.34;88.58;98316.70;1684865;85;26183;-47
2024/01/16 01:58:56;;;;;;;3.40;2.67;;;;;;;-3.36;88.70;98320.68;1684899;85;25434;-45
2024/01/16 02:01:28;;;;;;;3.55;2.17;;;;;;;-3.39;88.85;98325.95;1685013;84;27572;-44
2024/01/16 02:03:58;;;;;;;4.30;2.70;;;;;;;-3.40;88.81;98335.75;1684800;85;25573;-44
2024/01/16 02:06:26;;;;;;;5.85;2.60;;;;;;;-3.40;89.15;98334.42;1684843;85;25574;-44
2024/01/16 02:08:54;;;;;;;2.80;2.40;;;;;;;-3.39;89.26;98332.06;1684821;85;25625;-45
2024/01/16 02:11:21;;;;;;;4.78;2.60;;;;;;;-3.38;89.08;98344.20;1684762;84;25527;-46
2024/01/16 02:13:52;;;;;;;6.65;2.98;;;;;;;-3.35;89.37;98351.33;1684825;85;27917;-45
2024/01/16 02:16:24;;;;;;;4.28;3.05;;;;;;;-3.35;89.54;98343.40;1684811;85;25642;-45
2024/01/16 02:18:54;;;;;;;4.28;3.10;;;;;;;-3.33;89.74;98363.25;1684814;85;25472;-46
2024/01/16 02:21:29;;;;;;;4.35;2.20;;;;;;;-3.31;89.81;98374.34;1684717;84;25720;-45
2024/01/16 02:24:00;;;;;;;3.85;3.00;;;;;;;-3.30;89.81;98368.01;1684815;85;25564;-46
2024/01/16 02:26:36;;;;;;;5.50;3.00;;;;;;;-3.27;89.97;98370.64;1684844;85;27847;-46
2024/01/16 02:29:04;;;;;;;4.47;2.67;;;;;;;-3.27;89.44;98376.74;1684651;83;25615;-46
2024/01/16 02:31:34;;;;;;;4.45;2.90;;;;;;;-3.26;89.43;98380.95;1684797;85;25434;-45
2024/01/16 02:34:04;;;;;;;7.05;3.92;;;;;;;-3.27;89.37;98379.89;1684738;84;25795;-45
2024/01/16 02:36:34;;;;;;;4.22;3.15;;;;;;;-3.29;89.21;98383.34;1684920;85;25648;-46
2024/01/16 02:39:00;;;;;;;7.08;4.22;;;;;;;-3.34;88.67;98393.37;1684820;84;26839;-46
2024/01/16 02:41:28;;;;;;;6.03;3.17;;;;;;;-3.36;88.55;98397.36;1684768;85;25389;-45
2024/01/16 02:43:54;;;;;;;6.17;3.72;;;;;;;-3.43;88.11;98398.94;1684860;85;25647;-45
2024/01/16 02:46:21;;;;;;;7.80;3.17;;;;;;;-3.47;87.85;98402.64;1684814;85;26156;-45
2024/01/16 02:48:47;;;;;;;10.38;5.75;;;;;;;-3.51;87.84;98402.88;1684891;85;25555;-46
2024/01/16 02:51:13;;;;;;;6.62;4.37;;;;;;;-3.55;87.69;98415.58;1684821;84;28022;-45
2024/01/16 02:53:42;;;;;;;8.98;3.25;;;;;;;-3.59;87.43;98418.73;1684736;85;25394;-46
2024/01/16 02:56:12;;;;;;;5.20;3.42;;;;;;;-3.64;87.29;98423.23;1684906;85;25639;-45
2024/01/16 02:58:46;;;;;;;5.20;2.52;;;;;;;-3.68;87.26;98425.58;1684819;85;26378;-45
2024/01/16 03:01:12;;;;;;;3.33;3.02;;;;;;;-3.73;86.96;98424.78;1684918;85;25551;-44
2024/01/16 03:03:40;;;;;;;5.55;1.90;;;;;;;-3.77;86.67;98428.47;1684746;84;27307;-44
2024/01/16 03:06:09;;;;;;;2.35;2.10;;;;;;;-3.80;86.30;98443.02;1684754;85;25409;-43
2024/01/16 03:08:35;;;;;;;3.45;2.20;;;;;;;-3.85;86.33;98442.18;1684933;85;25607;-44
2024/01/16 03:11:02;;;;;;;3.50;2.00;;;;;;;-3.86;86.36;98447.21;1684812;85;25765;-44
2024/01/16 03:13:30;;;;;;;3.65;2.20;;;;;;;-3.91;86.25;98451.95;1684760;84;25397;-46
2024/01/16 03:16:00;;;;;;;2.25;1.62;;;;;;;-3.96;86.18;98464.59;1684765;85;27330;-46
2024/01/16 03:18:29;;;;;;;4.25;1.95;;;;;;;-3.98;86.14;98453.50;1684859;84;25500;-45
2024/01/16 03:21:00;;;;;;;3.90;2.58;;;;;;;-4.00;86.05;98464.04;1684953;85;25569;-46
2024/01/16 03:23:26;;;;;;;4.53;2.60;;;;;;;-4.03;85.98;98469.86;1684749;84;25595;-49
2024/01/16 03:25:53;;;;;;;3.15;2.02;;;;;;;-4.08;85.82;98470.63;1684812;85;25607;-46
2024/01/16 03:28:20;;;;;;;2.95;2.20;;;;;;;-4.11;85.77;98483.02;1684857;84;27063;-46
2024/01/16 03:30:47;;;;;;;4.22;2.20;;;;;;;-4.13;85.74;98484.59;1716954;83;25569;-45
2024/01/16 03:33:13;;;;;;;4.50;2.20;;;;;;;-4.16;85.64;98485.09;1719857;83;25637;-45
2024/01/16 03:35:41;;;;;;;3.15;2.20;;;;;;;-4.19;85.51;98492.23;1719701;83;25797;-45
2024/01/16 03:38:07;;;;;;;7.55;2.42;;;;;;;-4.21;85.56;98500.13;1719906;81;25405;-46
2024/01/16 03:40:34;;;;;;;2.30;2.08;;;;;;;-4.23;85.58;98500.92;1719856;83;28065;-45
2024/01/16 03:43:05;;;;;;;3.83;1.75;;;;;;;-4.28;84.92;98506.95;1719720;83;25649;-45
2024/01/16 03:45:31;;;;;;;2.25;1.80;;;;;;;-4.31;85.16;98512.73;1719837;83;25456;-46
2024/01/16 03:47:59;;;;;;;2.50;1.75;;;;;;;-4.34;85.25;98516.70;1719864;83;25662;-46
2024/01/16 03:50:25;;;;;;;3.52;1.70;;;;;;;-4.37;84.98;98514.56;1719890;83;25649;-45
2024/01/16 03:52:52;;;;;;;1.60;1.50;;;;;;;-4.39;85.08;98524.58;1719852;82;27328;-46
2024/01/16 03:55:20;;;;;;;2.33;1.75;;;;;;;-4.41;84.89;98533.79;1719635;83;25686;-44
2024/01/16 03:57:47;;;;;;;4.05;1.50;;;;;;;-4.44;85.00;98525.05;1719809;83;25404;-47
2024/01/16 04:00:14;;;;;;;2.58;1.40;;;;;;;-4.48;84.84;98537.97;1719714;83;25682;-43
2024/01/16 04:02:47;;;;;;;1.50;1.40;;;;;;;-4.51;84.75;98544.56;1719811;83;25750;-44
2024/01/16 04:05:18;;;;;;;1.70;1.50;;;;;;;-4.55;84.51;98546.09;1719911;83;27392;-46
2024/01/16 04:07:44;;;;;;;1.95;1.55;;;;;;;-4.58;84.51;98556.36;1719664;83;25380;-46
2024/01/16 04:10:11;;;;;;;2.83;2.05;;;;;;;-4.60;84.48;98565.05;1719817;83;25473;-49
2024/01/16 04:12:37;;;;;;;6.10;1.70;;;;;;;-4.64;84.31;98568.73;1719826;83;26331;-46
2024/01/16 04:15:11;;;;;;;3.45;2.00;;;;;;;-4.65;84.46;98581.63;1719853;83;25407;-44
2024/01/16 04:17:38;;;;;;;4.28;2.22;;;;;;;-4.69;84.44;98592.42;1719846;83;27388;-45
2024/01/16 04:20:11;;;;;;;2.45;1.95;;;;;;;-4.73;84.42;98586.86;1719773;83;25610;-46
2024/01/16 04:22:37;;;;;;;2.83;2.62;;;;;;;-4.75;84.29;98597.38;1719844;83;25658;-44
2024/01/16 04:25:07;;;;;;;2.50;1.60;;;;;;;-4.76;84.41;98601.86;1719822;83;25651;-44
2024/01/16 04:27:35;;;;;;;;;;;;;;;-4.79;84.32;98607.63;1722387;83;25618;-45
2024/01/16 04:30:01;;;;;;;2.75;1.67;;;;;;;-4.82;84.24;98604.17;1717469;83;27556;-45
2024/01/16 04:32:29;;;;;;;3.00;1.42;;;;;;;-4.85;84.07;98608.64;1714888;82;26300;-45
2024/01/16 04:34:55;;;;;;;2.80;1.85;;;;;;;-4.89;83.90;98607.53;1714996;83;25573;-44
2024/01/16 04:37:21;;;;;;;4.17;1.60;;;;;;;-4.91;83.83;98613.05;1714908;83;25723;-44
2024/01/16 04:39:48;;;;;;;3.72;1.55;;;;;;;-4.95;83.91;98611.97;1714923;82;25547;-45
2024/01/16 04:42:14;;;;;;;3.85;1.55;;;;;;;-4.97;83.84;98621.98;1714934;83;27219;-45
2024/01/16 04:44:40;;;;;;;3.98;1.57;;;;;;;-5.00;83.69;98617.72;1714852;83;25578;-47
2024/01/16 04:47:06;;;;;;;6.50;1.60;;;;;;;-5.02;83.74;98629.83;1714900;83;25528;-45
2024/01/16 04:49:33;;;;;;;1.60;1.20;;;;;;;-5.06;83.62;98624.77;1714938;83;25695;-46
2024/01/16 04:51:59;;;;;;;1.87;1.62;;;;;;;-5.09;83.48;98625.25;1714989;82;25325;-46
2024/01/16 04:54:25;;;;;;;2.83;1.27;;;;;;;-5.14;83.34;98631.28;1714875;83;27368;-45
2024/01/16 04:56:51;;;;;;;5.17;1.77;;;;;;;-5.19;83.19;98623.81;1714883;82;25378;-45
2024/01/16 04:59:17;;;;;;;1.70;1.30;;;;;;;-5.22;83.36;98631.71;1714937;82;25809;-45
2024/01/16 05:01:46;;;;;;;2.58;1.17;;;;;;;-5.23;83.40;98633.27;1714902;83;25706;-46
2024/01/16 05:04:12;;;;;;;4.72;1.82;;;;;;;-5.26;83.41;98644.59;1715079;83;25520;-45
2024/01/16 05:06:39;;;;;;;1.67;1.35;;;;;;;-5.28;83.41;98648.50;1714909;83;27406;-48
2024/01/16 05:09:06;;;;;;;2.45;1.20;;;;;;;-5.31;83.20;98647.66;1714769;83;27183;-45
2024/01/16 05:11:32;;;;;;;3.58;1.55;;;;;;;-5.35;83.26;98658.44;1714954;83;25401;-45
2024/01/16 05:13:58;;;;;;;3.50;1.37;;;;;;;-5.38;83.42;98670.28;1714896;83;26240;-45
2024/01/16 05:16:28;;;;;;;4.22;1.62;;;;;;;-5.39;83.26;98673.16;1714955;83;25629;-45
2024/01/16 05:18:55;;;;;;;2.75;1.22;;;;;;;-5.42;83.34;98688.13;1714869;83;27425;-45
2024/01/16 05:21:21;;;;;;;1.60;1.20;;;;;;;-5.45;83.41;98688.90;1714762;82;25540;-45
2024/01/16 05:23:47;;;;;;;2.58;1.70;;;;;;;-5.46;83.37;98693.09;1715113;82;25607;-48
2024/01/16 05:26:13;;;;;;;2.27;1.70;;;;;;;-5.50;83.57;98699.37;1715028;83;26165;-45
2024/01/16 05:28:41;;;;;;;4.78;1.85;;;;;;;-5.51;83.49;98695.13;1715072;83;25389;-46
2024/01/16 05:31:07;;;;;;;2.58;1.60;;;;;;;-5.50;83.65;98699.87;1691250;83;27423;-45
2024/01/16 05:33:33;;;;;;;1.77;1.52;;;;;;;-5.52;83.66;98700.11;1684775;85;25414;-45
2024/01/16 05:36:00;;;;;;;3.22;1.42;;;;;;;-5.51;83.94;98710.94;1684839;85;25556;-44
2024/01/16 05:38:26;;;;;;;4.25;1.45;;;;;;;-5.52;83.89;98706.70;1684851;85;25630;-44
2024/01/16 05:40:54;;;;;;;4.22;1.60;;;;;;;-5.51;83.91;98719.38;1684914;85;25568;-44
2024/01/16 05:43:20;;;;;;;2.52;1.72;;;;;;;-5.55;83.98;98712.97;1684882;84;27880;-44
2024/01/16 05:45:46;;;;;;;4.83;2.00;;;;;;;-5.54;84.04;98715.89;1684731;85;25599;-44
2024/01/16 05:48:12;;;;;;;4.80;2.20;;;;;;;-5.52;84.19;98723.03;1684896;85;25563;-44
2024/01/16 05:50:38;;;;;;;2.25;1.40;;;;;;;-5.52;84.04;98731.73;1684859;85;27841;-44
2024/01/16 05:53:04;;;;;;;5.65;2.30;;;;;;;-5.51;84.16;98728.59;1685014;85;25563;-44
2024/01/16 05:55:32;;;;;;;3.72;1.60;;;;;;;-5.51;84.21;98735.19;1684812;85;27344;-45
2024/01/16 05:58:02;;;;;;;5.78;2.10;;;;;;;-5.51;84.02;98737.81;1684777;84;25600;-45
2024/01/16 06:00:28;;;;;;;4.75;2.33;;;;;;;-5.52;84.07;98745.43;1684998;85;25563;-45
2024/01/16 06:02:54;;;;;;;6.75;2.60;;;;;;;-5.53;84.08;98742.01;1684802;84;25629;-45
2024/01/16 06:05:26;;;;;;;6.70;2.17;;;;;;;-5.53;83.97;98746.48;1684927;85;25396;-44
2024/01/16 06:07:53;;;;;;;3.25;1.95;;;;;;;-5.54;83.96;98747.52;1684955;85;27462;-45
2024/01/16 06:10:19;;;;;;;6.20;1.75;;;;;;;-5.56;84.76;98751.70;1684831;85;25575;-44
2024/01/16 06:12:45;;;;;;;2.40;1.82;;;;;;;-5.48;85.41;98757.10;1684780;85;25537;-44
2024/01/16 06:15:11;;;;;;;3.37;1.82;;;;;;;-5.45;84.75;98753.46;1684787;85;26668;-45
2024/01/16 06:17:37;;;;;;;2.12;1.80;;;;;;;-5.47;84.38;98763.42;1684864;84;25587;-46
2024/01/16 06:20:13;;;;;;;3.02;1.72;;;;;;;-5.48;84.27;98767.11;1684784;85;27464;-45
2024/01/16 06:22:39;;;;;;;4.78;2.02;;;;;;;-5.48;84.18;98763.69;1684773;85;25725;-46
2024/01/16 06:25:08;;;;;;;2.17;1.65;;;;;;;-5.48;84.21;98769.75;1684925;85;25613;-48
2024/01/16 06:27:35;;;;;;;7.12;2.22;;;;;;;-5.47;84.39;98785.82;1684876;84;25700;-47
2024/01/16 06:30:01;;;;;;;6.00;2.47;;;;;;;-5.46;84.32;98782.16;1684697;83;25515;-44
2024/01/16 06:32:29;;;;;;;4.72;2.05;;;;;;;-5.46;84.32;98786.11;1684984;85;29276;-45
2024/01/16 06:34:56;;;;;;;3.55;1.75;;;;;;;-5.45;84.22;98790.36;1684878;85;25414;-45
2024/01/16 06:37:22;;;;;;;3.15;1.60;;;;;;;-5.44;84.38;98787.19;1684928;85;25433;-44
2024/01/16 06:39:48;;;;;;;3.17;1.85;;;;;;;-5.44;84.23;98789.30;1684868;85;25822;-45
2024/01/16 06:42:15;;;;;;;5.42;1.92;;;;;;;-5.41;84.28;98800.39;1684953;85;25646;-43
2024/01/16 06:44:41;;;;;;;5.47;2.40;;;;;;;-5.40;84.31;98804.64;1684819;85;27324;-45
2024/01/16 06:47:07;;;;;;;5.03;2.37;;;;;;;-5.39;84.13;98807.56;1684722;85;25705;-44
2024/01/16 06:49:33;;;;;;;5.28;2.15;;;;;;;-5.38;83.97;98811.78;1684859;84;25469;-44
2024/01/16 06:51:59;;;;;;;5.60;2.10;;;;;;;-5.39;83.88;98817.58;1684735;85;25685;-44
2024/01/16 06:54:25;;;;;;;4.95;2.02;;;;;;;-5.38;83.79;98821.82;1684827;85;25590;-45
2024/01/16 06:56:53;;;;;;;2.83;1.80;;;;;;;-5.36;83.94;98828.96;1684875;85;27239;-44
2024/01/16 06:59:21;;;;;;;2.85;1.60;;;;;;;-5.35;83.86;98832.39;1684738;85;25666;-45
2024/01/16 07:01:49;;;;;;;3.77;1.90;;;;;;;-5.39;83.29;98828.64;1684695;85;25435;-45
2024/01/16 07:04:15;;;;;;;5.70;2.25;;;;;;;-5.38;83.30;98838.13;1684820;85;25629;-45
2024/01/16 07:06:41;;;;;;;8.20;2.27;;;;;;;-5.38;83.23;98843.41;1684781;84;25800;-45
2024/01/16 07:09:11;;;;;;;6.47;1.85;;;;;;;-5.39;83.17;98841.30;1684811;85;27249;-48
2024/01/16 07:11:42;;;;;;;6.45;1.72;;;;;;;-5.35;83.30;98848.98;1684746;85;25648;-45
2024/01/16 07:14:11;;;;;;;2.80;1.90;;;;;;;-5.34;83.40;98854.55;1685014;84;25639;-46
2024/01/16 07:16:39;;;;;;;5.00;1.98;;;;;;;-5.31;83.53;98849.31;1684722;84;25613;-46
2024/01/16 07:19:06;;;;;;;2.22;1.25;;;;;;;-5.29;83.52;98866.50;1684825;85;25494;-47
2024/01/16 07:21:33;;;;;;;3.05;1.72;;;;;;;-5.28;82.79;98860.70;1684768;85;27341;-46
2024/01/16 07:24:00;;;;;;;6.25;1.80;;;;;;;-5.27;82.80;98872.84;1684728;84;25171;-47
2024/01/16 07:26:27;;;;;;;2.50;1.80;;;;;;;-5.26;82.79;98875.25;1684840;84;25499;-46
2024/01/16 07:28:53;;;;;;;3.75;1.67;;;;;;;-5.24;82.49;98875.02;1665199;85;25500;-46
2024/01/16 07:31:20;;;;;;;4.55;1.92;;;;;;;-5.24;82.25;98890.83;1684892;83;25383;-46
2024/01/16 07:33:46;;;;;;;2.67;1.35;;;;;;;-5.25;81.97;98899.77;1684816;84;27289;-45
2024/01/16 07:36:15;;;;;;;2.25;1.50;;;;;;;-5.25;81.86;98901.08;1684757;85;25597;-45
2024/01/16 07:38:42;;;;;;;3.25;1.75;;;;;;;-5.25;81.73;98895.81;1684750;85;25638;-45
2024/01/16 07:41:09;;;;;;;5.03;1.77;;;;;;;-5.25;81.79;98910.31;1684725;84;25636;-45
2024/01/16 07:43:36;;;;;;;4.35;1.85;;;;;;;-5.22;81.78;98909.05;1684786;84;25639;-46
2024/01/16 07:46:06;;;;;;;4.72;1.87;;;;;;;-5.22;81.52;98916.95;1684761;85;29554;-46
2024/01/16 07:48:34;;;;;;;3.33;1.70;;;;;;;-5.22;81.50;98922.23;1684705;84;26400;-45
2024/01/16 07:51:00;;;;;;;5.40;1.80;;;;;;;-5.21;81.50;98927.77;1684798;85;25573;-45
2024/01/16 07:53:27;;;;;;;2.60;1.50;;;;;;;-5.19;81.80;98927.82;1667258;85;25558;-45
2024/01/16 07:55:55;;;;;;;3.02;1.62;;;;;;;-5.14;81.73;98928.40;1684782;84;25618;-45
2024/01/16 07:58:24;;;;;;;3.58;1.87;;;;;;;-5.07;82.18;98945.68;1684839;85;27332;-45
2024/01/16 08:00:50;;;;;;;7.72;1.60;;;;;;;-4.96;82.12;98949.80;1684791;84;25603;-45
2024/01/16 08:03:16;;;;;;;3.55;1.82;;;;;;;-4.81;82.60;98946.60;1684975;85;25480;-45
2024/01/16 08:05:46;;;;;;;3.65;1.45;;;;;;;-4.59;82.37;98950.63;1684812;84;26461;-46
2024/01/16 08:08:12;;;;;;;3.90;2.10;;;;;;;-4.31;83.86;98952.31;1684865;85;25623;-45
2024/01/16 08:10:43;;;;;;;3.92;1.85;;;;;;;-3.85;85.60;98957.37;1684783;85;27339;-45
2024/01/16 08:13:09;;;;;;;3.17;2.10;;;;;;;-3.46;83.44;98957.27;1684747;85;25836;-45
2024/01/16 08:15:37;;;;;;;5.47;2.02;;;;;;;-3.07;83.95;98969.00;1684750;85;25614;-45
2024/01/16 08:18:06;;;;;;;3.83;1.77;;;;;;;-2.77;82.10;98965.02;1684734;85;25681;-45
2024/01/16 08:20:32;;;;;;;5.05;2.08;;;;;;;-2.34;82.01;98963.97;1684866;85;25594;-45
2024/01/16 08:22:58;;;;;;;2.98;2.02;;;;;;;-1.90;82.33;98975.58;1684791;85;27457;-45
2024/01/16 08:25:25;;;;;;;3.72;1.65;;;;;;;-1.52;80.99;98979.42;1684762;84;25457;-45
2024/01/16 08:27:51;;;;;;;6.35;1.50;;;;;;;-1.13;80.15;98990.91;1684782;85;25586;-48
2024/01/16 08:30:20;;;;;;;3.42;1.87;;;;;;;-0.85;80.02;98969.71;1684706;83;25751;-45
2024/01/16 08:32:48;;;;;;;2.37;1.55;;;;;;;-0.45;79.14;98983.22;1684827;85;25417;-46
2024/01/16 08:35:17;;;;;;;3.67;1.62;;;;;;;0.04;78.79;98970.61;1684712;85;27379;-46
2024/01/16 08:37:43;;;;;;;6.15;1.95;;;;;;;0.36;77.63;98992.03;1684766;85;25496;-46
2024/01/16 08:40:12;;;;;;;4.83;1.65;;;;;;;0.58;73.63;98992.17;1684784;85;25626;-46
2024/01/16 08:42:42;;;;;;;4.08;1.50;;;;;;;0.77;73.41;98988.34;1684926;85;25628;-45
2024/01/16 08:45:09;;;;;;;2.67;1.35;;;;;;;0.86;72.06;98998.68;1684839;85;26056;-46
2024/01/16 08:47:36;;;;;;;2.20;1.35;;;;;;;1.10;73.01;99004.89;1684661;85;27329;-46
2024/01/16 08:50:09;;;;;;;4.47;1.42;;;;;;;1.36;71.72;99000.70;1684719;85;25631;-46
2024/01/16 08:52:37;;;;;;;1.82;1.25;;;;;;;1.58;71.12;99006.12;1684897;85;25416;-47
2024/01/16 08:55:11;;;;;;;3.40;1.17;;;;;;;1.77;69.93;99008.87;1684689;85;26169;-46
2024/01/16 08:57:39;;;;;;;2.52;1.20;;;;;;;1.89;68.42;99024.48;1684924;85;25508;-46
2024/01/16 09:00:17;;;;;;;4.80;1.35;;;;;;;1.93;67.68;99030.31;1684815;85;27332;-47
2024/01/16 09:02:43;;;;;;;2.75;1.62;;;;;;;2.02;68.75;99029.16;1684872;85;25622;-46
2024/01/16 09:05:10;;;;;;;2.08;1.55;;;;;;;2.41;70.04;99037.53;1684947;84;25653;-46
2024/01/16 09:07:36;;;;;;;1.95;1.27;;;;;;;2.86;70.54;99042.05;1684970;85;26071;-46
2024/01/16 09:10:13;;;;;;;3.17;1.40;;;;;;;3.19;69.31;99047.45;1685017;85;25571;-46
2024/01/16 09:12:44;;;;;;;6.22;1.85;;;;;;;3.63;70.17;99052.91;1684922;85;27335;-47
2024/01/16 09:15:14;;;;;;;3.98;1.50;;;;;;;4.01;68.35;99056.80;1684769;85;25618;-50
2024/01/16 09:17:41;;;;;;;3.52;1.67;;;;;;;4.35;67.82;99065.56;1684866;84;25687;-46
2024/01/16 09:20:13;;;;;;;3.42;1.50;;;;;;;4.63;65.50;99054.27;1684913;85;25589;-46
2024/01/16 09:22:40;;;;;;;2.80;1.70;;;;;;;4.72;64.54;99059.19;1684970;85;25586;-48
2024/01/16 09:25:09;;;;;;;3.35;1.15;;;;;;;4.92;64.91;99058.50;1684852;85;27456;-47
2024/01/16 09:27:37;;;;;;;2.47;1.42;;;;;;;5.20;64.27;99065.38;1684813;85;25373;-47
2024/01/16 09:30:13;;;;;;;2.52;1.50;;;;;;;5.20;60.68;99053.31;1684993;85;25629;-48
2024/01/16 09:32:39;;;;;;;4.22;1.80;;;;;;;5.05;59.94;99057.67;1715445;83;25626;-47
2024/01/16 09:35:11;;;;;;;3.95;1.50;;;;;;;5.11;60.50;99064.52;1719989;83;25592;-46
2024/01/16 09:37:39;;;;;;;2.17;1.35;;;;;;;5.17;57.88;99061.95;1712186;83;27505;-47
2024/01/16 09:40:13;;;;;;;1.95;1.42;;;;;;;5.16;56.64;99059.05;1709986;83;25570;-46
2024/01/16 09:42:41;;;;;;;2.00;1.30;;;;;;;5.18;58.86;99061.42;1710033;83;25475;-47
2024/01/16 09:45:16;;;;;;;2.33;1.25;;;;;;;5.17;56.90;99067.31;1709986;83;25792;-49
2024/01/16 09:47:52;;;;;;;2.67;1.45;;;;;;;5.09;57.02;99064.56;1709973;83;25618;-46
2024/01/16 09:50:23;;;;;;;2.77;1.50;;;;;;;5.21;56.24;99070.18;1709949;83;27333;-47
2024/01/16 09:52:50;;;;;;;2.12;1.52;;;;;;;5.38;57.53;99070.87;1709996;83;25622;-47
2024/01/16 09:55:17;;;;;;;2.87;1.27;;;;;;;5.47;56.65;99075.77;1709907;83;25597;-47
2024/01/16 09:57:51;;;;;;;3.33;1.47;;;;;;;5.73;56.50;99069.78;1710106;83;25633;-47
2024/01/16 10:00:21;;;;;;;3.67;1.60;;;;;;;5.98;56.69;99079.13;1710067;83;25721;-46
2024/01/16 10:02:51;;;;;;;4.17;1.12;;;;;;;6.26;56.67;99078.93;1709933;83;27331;-45
2024/01/16 10:05:17;;;;;;;3.20;1.50;;;;;;;6.30;53.41;99088.76;1709868;83;25988;-51
2024/01/16 10:07:47;;;;;;;3.10;1.27;;;;;;;6.30;53.87;99093.31;1709851;83;25606;-46
2024/01/16 10:10:15;;;;;;;3.95;1.20;;;;;;;6.36;54.36;99093.43;1709881;83;26255;-49
2024/01/16 10:12:47;;;;;;;1.90;1.25;;;;;;;6.58;53.02;99089.09;1709935;83;25738;-49
2024/01/16 10:15:18;;;;;;;3.70;0.93;;;;;;;6.50;52.00;99103.53;1710012;83;27433;-47
2024/01/16 10:17:44;;;;;;;3.17;1.12;;;;;;;6.56;52.26;99105.52;1709779;83;25621;-47
2024/01/16 10:20:18;;;;;;;3.22;1.25;;;;;;;6.75;53.01;99112.54;1709924;83;25444;-48
2024/01/16 10:22:56;;;;;;;3.22;1.40;;;;;;;6.84;52.64;99117.37;1709956;83;25714;-46
2024/01/16 10:25:27;;;;;;;2.15;1.35;;;;;;;6.72;50.23;99113.94;1690321;83;25635;-48
2024/01/16 10:28:09;;;;;;;2.27;1.00;;;;;;;6.65;50.58;99117.08;1709864;83;27257;-47
2024/01/16 10:30:37;;;;;;;3.47;1.75;;;;;;;6.68;49.52;99125.87;1709884;83;28046;-46
2024/01/16 10:33:16;;;;;;;3.35;1.55;;;;;;;6.75;50.93;99136.73;1709961;83;25458;-47
2024/01/16 10:35:44;;;;;;;2.90;1.37;;;;;;;6.94;50.45;99136.46;1709987;83;25570;-48
2024/01/16 10:38:16;;;;;;;2.70;1.30;;;;;;;7.11;49.82;99132.45;1710008;83;25461;-50
2024/01/16 10:40:42;;;;;;;2.10;1.10;;;;;;;7.26;49.27;99141.98;1702379;83;27620;-46
2024/01/16 10:43:08;;;;;;;4.58;1.67;;;;;;;7.04;46.50;99136.17;1709887;83;25478;-44
2024/01/16 10:45:36;;;;;;;3.35;1.77;;;;;;;6.88;48.87;99137.17;1709914;82;25566;-45
2024/01/16 10:48:09;;;;;;;3.45;1.45;;;;;;;7.32;49.38;99133.20;1709902;83;25610;-45
2024/01/16 10:50:41;;;;;;;5.03;1.50;;;;;;;7.43;48.40;99130.44;1710024;83;25609;-46
2024/01/16 10:53:09;;;;;;;2.55;1.15;;;;;;;7.53;46.66;99138.77;1709968;83;26749;-49
2024/01/16 10:55:54;;;;;;;4.05;1.80;;;;;;;7.14;45.78;99140.47;1709888;83;25551;-46
2024/01/16 10:58:26;;;;;;;4.37;1.67;;;;;;;6.99;46.21;99142.47;1709913;83;25706;-46
2024/01/16 11:00:59;;;;;;;2.92;1.85;;;;;;;6.88;45.72;99141.98;1709940;83;25507;-47
2024/01/16 11:03:50;;;;;;;2.62;1.50;;;;;;;6.63;46.84;99146.16;1708791;83;25612;-46
2024/01/16 11:06:20;;;;;;;2.98;1.72;;;;;;;6.77;47.04;99147.95;1709993;83;27340;-46
2024/01/16 11:08:51;;;;;;;3.02;1.50;;;;;;;6.58;46.93;99162.98;1709797;83;25575;-47
2024/01/16 11:11:24;;;;;;;2.72;1.37;;;;;;;6.83;47.87;99156.13;1709963;83;25819;-47
2024/01/16 11:13:56;;;;;;;3.22;1.37;;;;;;;7.25;48.43;99155.17;1709936;83;25683;-47
2024/01/16 11:16:26;;;;;;;6.08;1.80;;;;;;;7.55;47.81;99162.89;1709975;83;25640;-48
2024/01/16 11:18:52;;;;;;;2.55;1.45;;;;;;;7.55;46.79;99159.41;1709881;83;27904;-47
2024/01/16 11:21:22;;;;;;;4.05;1.62;;;;;;;7.09;45.12;99166.94;1709828;83;25451;-47
2024/01/16 11:23:49;;;;;;;2.72;1.60;;;;;;;7.04;46.03;99162.49;1710023;83;25653;-46
2024/01/16 11:26:36;;;;;;;3.20;1.25;;;;;;;7.09;46.75;99169.63;1709931;82;25972;-47
2024/01/16 11:29:32;;;;;;;4.40;1.87;;;;;;;7.09;45.31;99164.25;1709983;83;25609;-46
2024/01/16 11:32:00;;;;;;;3.65;1.32;;;;;;;6.97;45.67;99160.82;1709859;83;28029;-46
2024/01/16 11:34:49;;;;;;;3.35;1.47;;;;;;;6.99;45.31;99166.67;1709993;83;25471;-49
2024/01/16 11:37:29;;;;;;;1.52;1.20;;;;;;;6.86;45.05;99172.95;1708058;83;27121;-47
2024/01/16 11:40:21;;;;;;;4.55;1.50;;;;;;;6.38;44.32;99159.71;1709781;83;25773;-48
2024/01/16 11:42:53;;;;;;;1.77;1.00;;;;;;;6.08;45.14;99170.66;1709962;83;25476;-49
2024/01/16 11:45:34;;;;;;;2.58;1.30;;;;;;;5.67;45.00;99181.00;1708856;83;27541;-47